Time;durP1;ratioP1;P1;durP2;ratioP2;P2;SDS_P1;SDS_P2;PMS_P1;PMS_P2;Temp;Humidity;BMP_temperature;BMP_pressure;BME280_temperature;BME280_humidity;BME280_pressure;Samples;Min_cycle;Max_cycle;Signal;HPM_P1;HPM_P2
2022/01/08 00:00:31;;;;;;;15.30;12.53;;;2.90;99.90;;;;;;5097416;28;20264;-54
2022/01/08 00:03:00;;;;;;;15.47;13.10;;;2.90;99.90;;;;;;5111683;28;20211;-53
2022/01/08 00:05:28;;;;;;;19.70;15.63;;;2.90;99.90;;;;;;5110727;28;20756;-53
2022/01/08 00:07:56;;;;;;;19.23;14.87;;;2.90;99.90;;;;;;5111008;28;20263;-53
2022/01/08 00:10:24;;;;;;;17.13;13.60;;;2.90;99.90;;;;;;5102923;28;20213;-54
2022/01/08 00:12:54;;;;;;;18.47;14.43;;;2.90;99.90;;;;;;5108695;28;20213;-53
2022/01/08 00:15:22;;;;;;;16.73;14.83;;;2.90;99.90;;;;;;5111647;28;20212;-53
2022/01/08 00:17:50;;;;;;;17.07;14.43;;;2.80;99.90;;;;;;5110751;28;20276;-53
2022/01/08 00:20:19;;;;;;;16.87;13.63;;;2.80;99.90;;;;;;5111234;28;20604;-52
2022/01/08 00:22:50;;;;;;;15.13;13.53;;;2.90;99.90;;;;;;5111308;28;20225;-53
2022/01/08 00:25:18;;;;;;;16.30;13.70;;;2.90;99.90;;;;;;5110462;28;20231;-53
2022/01/08 00:27:46;;;;;;;18.67;14.83;;;3.00;99.90;;;;;;5110611;28;20252;-54
2022/01/08 00:30:16;;;;;;;19.37;16.40;;;2.90;99.90;;;;;;5110918;28;20617;-53
2022/01/08 00:32:44;;;;;;;16.67;14.47;;;2.90;99.90;;;;;;5111373;28;20243;-55
2022/01/08 00:35:13;;;;;;;18.17;14.90;;;2.90;99.90;;;;;;5110814;28;20196;-53
2022/01/08 00:37:41;;;;;;;17.93;15.57;;;2.90;99.90;;;;;;5123543;28;20584;-54
2022/01/08 00:40:11;;;;;;;17.10;15.03;;;2.90;99.90;;;;;;5111215;28;20211;-53
2022/01/08 00:42:40;;;;;;;17.80;15.13;;;3.00;99.90;;;;;;5134467;27;20234;-53
2022/01/08 00:45:09;;;;;;;18.07;14.97;;;3.00;99.90;;;;;;5123397;27;20201;-53
2022/01/08 00:47:38;;;;;;;16.00;14.30;;;3.10;99.90;;;;;;5094272;28;20285;-52
2022/01/08 00:50:07;;;;;;;24.27;14.80;;;3.10;99.90;;;;;;5106100;28;20323;-52
2022/01/08 00:52:36;;;;;;;18.83;16.63;;;3.10;99.90;;;;;;5113976;28;20242;-53
2022/01/08 00:55:04;;;;;;;19.27;15.97;;;3.00;99.90;;;;;;5115256;28;20318;-52
2022/01/08 00:57:33;;;;;;;20.70;16.10;;;3.00;99.90;;;;;;5114051;28;20222;-53
2022/01/08 01:00:01;;;;;;;20.17;16.83;;;2.90;99.90;;;;;;5113568;28;20257;-53
2022/01/08 01:02:29;;;;;;;17.20;15.00;;;3.00;99.90;;;;;;5114541;28;20208;-54
2022/01/08 01:04:58;;;;;;;16.37;14.13;;;3.00;99.90;;;;;;5114143;28;20214;-54
2022/01/08 01:07:26;;;;;;;16.97;13.97;;;3.00;99.90;;;;;;5103243;28;20224;-54
2022/01/08 01:09:55;;;;;;;15.60;12.90;;;3.00;99.90;;;;;;5114339;28;20288;-55
2022/01/08 01:12:23;;;;;;;17.20;13.13;;;3.00;99.90;;;;;;5114194;28;20207;-55
2022/01/08 01:15:09;;;;;;;15.60;13.53;;;2.90;99.90;;;;;;5114177;28;20244;-55
2022/01/08 01:17:38;;;;;;;15.77;12.97;;;2.90;99.90;;;;;;5114275;28;20294;-53
2022/01/08 01:20:10;;;;;;;16.63;13.53;;;2.90;99.90;;;;;;5124977;27;20211;-53
2022/01/08 01:22:48;;;;;;;16.17;14.40;;;3.00;99.90;;;;;;5114023;28;20198;-53
2022/01/08 01:25:21;;;;;;;16.53;14.60;;;3.00;99.90;;;;;;5107651;28;20564;-53
2022/01/08 01:28:00;;;;;;;16.73;13.63;;;3.00;99.90;;;;;;5092829;28;20786;-52
2022/01/08 01:41:03;;;;;;;20.83;15.50;;;3.00;99.90;;;;;;5093926;28;20228;-54
2022/01/08 01:41:53;;;;;;;15.97;14.13;;;3.00;99.90;;;;;;5101969;28;20207;-54
2022/01/08 01:47:07;;;;;;;19.53;15.53;;;3.00;99.90;;;;;;5134405;27;20326;-53
2022/01/08 01:49:38;;;;;;;16.00;14.30;;;3.00;99.90;;;;;;5127002;27;20249;-53
2022/01/08 01:52:09;;;;;;;21.17;16.27;;;3.10;99.90;;;;;;5113189;28;20203;-54
2022/01/08 01:54:37;;;;;;;26.93;18.27;;;3.10;99.90;;;;;;5116795;28;20209;-54
2022/01/08 01:57:08;;;;;;;19.67;15.60;;;3.10;99.90;;;;;;5113067;28;20311;-54
2022/01/08 01:59:41;;;;;;;19.37;16.20;;;3.20;99.90;;;;;;5103878;28;20254;-51
2022/01/08 02:02:09;;;;;;;22.60;16.50;;;3.10;99.90;;;;;;5092614;28;20204;-54
2022/01/08 02:04:37;;;;;;;22.47;17.67;;;3.20;99.90;;;;;;5104836;28;20208;-53
2022/01/08 02:07:08;;;;;;;20.37;16.43;;;3.20;99.90;;;;;;5113124;28;20219;-53
2022/01/08 02:09:39;;;;;;;21.87;16.63;;;3.20;99.90;;;;;;5113039;28;20288;-53
2022/01/08 02:12:10;;;;;;;23.20;18.20;;;3.20;99.90;;;;;;5113505;28;20260;-54
2022/01/08 02:14:39;;;;;;;17.67;14.87;;;3.30;99.90;;;;;;5093032;28;20204;-51
2022/01/08 02:17:09;;;;;;;19.60;16.20;;;3.20;99.90;;;;;;5092052;28;20340;-52
2022/01/08 02:19:40;;;;;;;21.10;16.77;;;3.20;99.90;;;;;;5102326;28;20202;-54
2022/01/08 02:22:15;;;;;;;19.63;16.30;;;3.20;99.90;;;;;;5113408;28;20207;-53
2022/01/08 02:24:45;;;;;;;19.40;15.37;;;3.20;99.90;;;;;;5101943;28;20216;-54
2022/01/08 02:27:13;;;;;;;20.00;14.60;;;3.30;99.90;;;;;;5111738;28;20826;-54
2022/01/08 02:29:42;;;;;;;21.93;16.97;;;3.40;99.90;;;;;;5112284;28;20773;-53
2022/01/08 02:32:12;;;;;;;21.70;16.10;;;3.40;99.90;;;;;;5112653;28;20269;-54
2022/01/08 02:34:41;;;;;;;20.17;16.20;;;3.40;99.90;;;;;;5129759;27;20219;-53
2022/01/08 02:37:12;;;;;;;22.50;17.27;;;3.40;99.90;;;;;;5111628;28;20232;-52
2022/01/08 02:39:44;;;;;;;22.60;16.60;;;3.40;99.90;;;;;;5112890;28;20610;-52
2022/01/08 02:42:17;;;;;;;19.83;15.93;;;3.40;99.90;;;;;;5112227;28;20600;-55
2022/01/08 02:44:46;;;;;;;20.37;16.10;;;3.40;99.90;;;;;;5105774;28;20628;-54
2022/01/08 02:47:20;;;;;;;21.20;16.10;;;3.30;99.90;;;;;;5091735;28;20231;-52
2022/01/08 02:49:52;;;;;;;18.20;14.60;;;3.30;99.90;;;;;;5100682;28;20574;-54
2022/01/08 02:52:23;;;;;;;20.60;15.40;;;3.30;99.90;;;;;;5108075;28;20214;-54
2022/01/08 02:54:51;;;;;;;17.40;15.30;;;3.30;99.90;;;;;;5112698;28;20204;-52
2022/01/08 02:57:19;;;;;;;20.67;16.47;;;3.30;99.90;;;;;;5111237;28;20269;-54
2022/01/08 02:59:48;;;;;;;18.27;14.90;;;3.40;99.90;;;;;;5104109;28;20580;-53
2022/01/08 03:02:16;;;;;;;16.10;13.93;;;3.40;99.90;;;;;;5112327;28;20573;-54
2022/01/08 03:04:46;;;;;;;12.30;11.00;;;3.40;99.90;;;;;;5112444;28;20216;-55
2022/01/08 03:07:14;;;;;;;15.90;13.80;;;3.40;99.90;;;;;;5111646;28;20224;-54
2022/01/08 03:09:46;;;;;;;19.57;15.30;;;3.40;99.90;;;;;;5112417;28;20231;-52
2022/01/08 03:12:14;;;;;;;17.40;13.90;;;3.40;99.90;;;;;;5112071;28;20253;-53
2022/01/08 03:14:42;;;;;;;14.97;13.37;;;3.40;99.90;;;;;;5112057;28;20206;-53
2022/01/08 03:17:11;;;;;;;19.13;15.50;;;3.40;99.90;;;;;;5111496;28;20227;-55
2022/01/08 03:19:39;;;;;;;19.50;15.03;;;3.40;99.90;;;;;;5111924;28;20196;-54
2022/01/08 03:22:07;;;;;;;17.03;14.33;;;3.40;99.90;;;;;;5132310;27;20260;-54
2022/01/08 03:24:36;;;;;;;18.43;14.27;;;3.40;99.90;;;;;;5132376;27;20200;-52
2022/01/08 03:27:06;;;;;;;18.20;14.30;;;3.40;99.90;;;;;;5123839;27;20239;-54
2022/01/08 03:29:34;;;;;;;19.97;14.77;;;3.40;99.90;;;;;;5116651;27;20218;-53
2022/01/08 03:32:03;;;;;;;16.43;14.47;;;3.30;99.90;;;;;;5132582;27;20256;-53
2022/01/08 03:34:32;;;;;;;17.20;14.83;;;3.30;99.90;;;;;;5108997;27;20210;-54
2022/01/08 03:37:00;;;;;;;18.07;13.93;;;3.40;99.90;;;;;;5119353;27;20616;-53
2022/01/08 03:39:28;;;;;;;18.93;14.67;;;3.40;99.90;;;;;;5132278;27;20208;-53
2022/01/08 03:41:56;;;;;;;20.03;15.73;;;3.40;99.90;;;;;;5116831;27;20252;-54
2022/01/08 03:44:26;;;;;;;19.00;15.20;;;3.50;99.90;;;;;;5112197;28;20619;-51
2022/01/08 03:46:56;;;;;;;23.67;16.57;;;3.50;99.90;;;;;;5111933;28;20208;-53
2022/01/08 03:49:25;;;;;;;20.33;15.03;;;3.40;99.90;;;;;;5112442;28;20200;-54
2022/01/08 03:51:55;;;;;;;22.13;15.93;;;3.50;99.90;;;;;;5112111;28;20629;-53
2022/01/08 03:54:24;;;;;;;21.93;16.73;;;3.40;99.90;;;;;;5130505;27;20260;-54
2022/01/08 03:56:52;;;;;;;19.97;15.87;;;3.40;99.90;;;;;;5111696;28;20203;-54
2022/01/08 03:59:20;;;;;;;18.77;15.67;;;3.40;99.90;;;;;;5104005;28;20601;-53
2022/01/08 04:01:50;;;;;;;17.03;14.43;;;3.40;99.90;;;;;;5091295;28;20253;-55
2022/01/08 04:04:18;;;;;;;18.00;14.10;;;3.40;99.90;;;;;;5090704;28;20256;-55
2022/01/08 04:06:46;;;;;;;17.70;14.37;;;3.40;99.90;;;;;;5090529;28;20587;-54
2022/01/08 04:09:14;;;;;;;19.87;15.57;;;3.40;99.90;;;;;;5098568;28;20204;-53
2022/01/08 04:11:43;;;;;;;20.10;14.90;;;3.40;99.90;;;;;;5110856;28;20272;-53
2022/01/08 04:14:12;;;;;;;18.47;15.00;;;3.30;99.90;;;;;;5111162;28;20264;-55
2022/01/08 04:16:44;;;;;;;19.67;15.33;;;3.30;99.90;;;;;;5113162;28;20763;-53
2022/01/08 04:19:14;;;;;;;23.00;16.90;;;3.30;99.90;;;;;;5114912;28;20200;-54
2022/01/08 04:24:36;;;;;;;21.27;16.40;;;3.40;99.90;;;;;;5150378;27;21200;-55
2022/01/08 04:27:05;;;;;;;20.00;15.63;;;3.40;99.90;;;;;;5132290;27;20205;-54
2022/01/08 04:29:33;;;;;;;21.53;16.10;;;3.30;99.90;;;;;;5128636;28;20686;-55
2022/01/08 04:32:02;;;;;;;21.77;16.03;;;3.40;99.90;;;;;;5129298;27;20664;-53
2022/01/08 04:34:30;;;;;;;18.83;15.03;;;3.40;99.90;;;;;;5129519;27;20669;-53
2022/01/08 04:36:58;;;;;;;20.50;15.13;;;3.40;99.90;;;;;;5132924;27;20260;-54
2022/01/08 04:39:27;;;;;;;16.97;13.37;;;3.40;99.90;;;;;;5149713;27;20242;-53
2022/01/08 04:41:56;;;;;;;17.33;13.73;;;3.40;99.90;;;;;;5145348;27;20667;-54
2022/01/08 04:44:25;;;;;;;22.57;15.67;;;3.40;99.90;;;;;;5128806;27;20235;-53
2022/01/08 04:46:53;;;;;;;20.57;15.63;;;3.40;99.90;;;;;;5128948;27;20202;-54
2022/01/08 04:49:21;;;;;;;20.70;15.00;;;3.50;99.90;;;;;;5134259;27;20222;-53
2022/01/08 04:51:49;;;;;;;20.80;15.37;;;3.50;99.90;;;;;;5149262;27;20207;-53
2022/01/08 04:54:17;;;;;;;20.57;15.83;;;3.40;99.90;;;;;;5129486;27;20204;-53
2022/01/08 04:56:45;;;;;;;19.33;15.13;;;3.40;99.90;;;;;;5128429;27;20203;-53
2022/01/08 04:59:15;;;;;;;18.30;14.67;;;3.40;99.90;;;;;;5122504;28;20660;-53
2022/01/08 05:01:43;;;;;;;19.77;14.37;;;3.40;99.90;;;;;;5108251;28;20206;-53
2022/01/08 05:04:12;;;;;;;21.80;15.30;;;3.40;99.90;;;;;;5108154;28;20638;-54
2022/01/08 05:06:43;;;;;;;19.43;14.07;;;3.40;99.90;;;;;;5144419;27;20283;-52
2022/01/08 05:09:11;;;;;;;18.47;14.40;;;3.40;99.90;;;;;;5149399;27;20261;-53
2022/01/08 05:11:39;;;;;;;20.23;15.23;;;3.50;99.90;;;;;;5149357;27;20674;-52
2022/01/08 05:14:09;;;;;;;24.37;15.93;;;3.50;99.90;;;;;;5148706;27;20247;-54
2022/01/08 05:16:40;;;;;;;19.57;15.20;;;3.40;99.90;;;;;;5149437;27;20198;-52
2022/01/08 05:19:08;;;;;;;17.47;13.97;;;3.30;99.90;;;;;;5146830;27;20229;-53
2022/01/08 05:21:38;;;;;;;17.53;13.63;;;3.30;99.90;;;;;;5146767;27;20217;-53
2022/01/08 05:24:06;;;;;;;17.97;13.33;;;3.30;99.90;;;;;;5128286;28;20310;-53
2022/01/08 05:26:34;;;;;;;16.87;12.30;;;3.30;99.90;;;;;;5128325;27;20207;-53
2022/01/08 05:29:02;;;;;;;15.37;12.67;;;3.40;99.90;;;;;;5127886;27;20277;-53
2022/01/08 05:31:30;;;;;;;15.03;11.60;;;3.40;99.90;;;;;;5127754;27;20203;-55
2022/01/08 05:33:59;;;;;;;14.70;11.23;;;3.40;99.90;;;;;;5136801;27;20212;-53
2022/01/08 05:36:28;;;;;;;15.67;11.70;;;3.40;99.90;;;;;;5118594;27;20464;-54
2022/01/08 05:38:56;;;;;;;15.80;11.73;;;3.50;99.90;;;;;;5114418;28;20262;-53
2022/01/08 05:41:24;;;;;;;14.13;10.57;;;3.50;99.90;;;;;;5114662;28;20207;-53
2022/01/08 05:43:52;;;;;;;12.27;9.97;;;3.40;99.90;;;;;;5113592;28;20711;-54
2022/01/08 05:46:20;;;;;;;12.73;10.13;;;3.40;99.90;;;;;;5114171;27;20260;-53
2022/01/08 05:48:48;;;;;;;11.57;9.90;;;3.50;99.90;;;;;;5126358;27;20760;-53
2022/01/08 05:51:17;;;;;;;13.07;10.50;;;3.50;99.90;;;;;;5134587;27;20201;-54
2022/01/08 05:53:45;;;;;;;12.17;9.67;;;3.40;99.90;;;;;;5119634;27;20200;-54
2022/01/08 05:56:14;;;;;;;12.77;9.90;;;3.30;99.90;;;;;;5113871;28;20311;-53
2022/01/08 05:58:42;;;;;;;13.67;9.90;;;3.30;99.90;;;;;;5113597;28;20223;-54
2022/01/08 06:01:10;;;;;;;14.27;10.83;;;3.30;99.90;;;;;;5116089;27;20595;-54
2022/01/08 06:03:38;;;;;;;14.20;11.40;;;3.40;99.90;;;;;;5134543;27;20265;-54
2022/01/08 06:06:06;;;;;;;13.77;10.80;;;3.40;99.90;;;;;;5134055;27;20211;-53
2022/01/08 06:08:35;;;;;;;11.37;8.53;;;3.40;99.90;;;;;;5134313;27;20219;-54
2022/01/08 06:11:04;;;;;;;11.90;9.53;;;3.40;99.90;;;;;;5134028;27;20246;-53
2022/01/08 06:13:32;;;;;;;13.90;10.17;;;3.30;99.90;;;;;;5134032;27;20203;-53
2022/01/08 06:16:00;;;;;;;11.93;9.27;;;3.30;99.90;;;;;;5134414;27;20248;-53
2022/01/08 06:18:28;;;;;;;11.70;9.23;;;3.30;99.90;;;;;;5119490;27;20881;-54
2022/01/08 06:20:59;;;;;;;11.80;9.23;;;3.30;99.90;;;;;;5093070;28;20710;-53
2022/01/08 06:23:27;;;;;;;12.93;9.57;;;3.30;99.90;;;;;;5105342;28;20272;-54
2022/01/08 06:25:57;;;;;;;15.07;9.83;;;3.30;99.90;;;;;;5094174;27;20277;-53
2022/01/08 06:28:25;;;;;;;12.33;10.20;;;3.30;99.90;;;;;;5092634;28;20646;-53
2022/01/08 06:30:54;;;;;;;12.60;9.67;;;3.40;99.90;;;;;;5109487;28;20545;-53
2022/01/08 06:33:22;;;;;;;13.37;10.03;;;3.30;99.90;;;;;;5113382;28;20730;-53
2022/01/08 06:35:51;;;;;;;13.03;10.00;;;3.30;99.90;;;;;;5113014;28;20204;-54
2022/01/08 06:38:19;;;;;;;12.73;10.10;;;3.30;99.90;;;;;;5113112;28;20234;-52
2022/01/08 06:40:47;;;;;;;11.37;9.17;;;3.30;99.90;;;;;;5113397;28;20204;-54
2022/01/08 06:43:17;;;;;;;14.13;10.87;;;3.30;99.90;;;;;;5108306;28;20197;-53
2022/01/08 06:45:45;;;;;;;12.27;10.17;;;3.30;99.90;;;;;;5112062;28;20223;-55
2022/01/08 06:48:13;;;;;;;12.50;9.70;;;3.30;99.90;;;;;;5112771;28;20220;-53
2022/01/08 06:50:41;;;;;;;12.10;9.60;;;3.30;99.90;;;;;;5129622;27;20302;-53
2022/01/08 06:53:09;;;;;;;12.80;9.93;;;3.30;99.90;;;;;;5123502;27;20240;-54
2022/01/08 06:55:37;;;;;;;13.50;9.90;;;3.20;99.90;;;;;;5113189;28;20206;-55
2022/01/08 06:58:05;;;;;;;13.00;10.00;;;3.20;99.90;;;;;;5111785;28;20222;-55
2022/01/08 07:00:35;;;;;;;13.50;11.07;;;3.20;99.90;;;;;;5095365;28;20210;-55
2022/01/08 07:03:05;;;;;;;14.27;11.37;;;3.20;99.90;;;;;;5107062;27;20841;-53
2022/01/08 07:05:33;;;;;;;12.70;11.17;;;3.20;99.90;;;;;;5130950;27;20242;-54
2022/01/08 07:08:01;;;;;;;15.73;11.37;;;3.10;99.90;;;;;;5125313;27;20698;-54
2022/01/08 07:10:30;;;;;;;14.77;10.80;;;3.00;99.90;;;;;;5112752;28;20212;-54
2022/01/08 07:12:58;;;;;;;16.73;10.67;;;2.90;99.90;;;;;;5103449;27;20644;-55
2022/01/08 07:15:26;;;;;;;16.40;11.50;;;2.90;99.90;;;;;;5092013;28;20231;-55
2022/01/08 07:17:55;;;;;;;14.23;10.20;;;2.80;99.90;;;;;;5094985;27;20255;-53
2022/01/08 07:20:24;;;;;;;15.73;11.03;;;2.80;99.90;;;;;;5110464;28;20286;-53
2022/01/08 07:22:52;;;;;;;15.20;11.03;;;2.80;99.90;;;;;;5112291;28;20239;-53
2022/01/08 07:25:20;;;;;;;15.07;10.17;;;2.80;99.90;;;;;;5112399;28;20233;-54
2022/01/08 07:27:48;;;;;;;13.97;10.70;;;2.80;99.90;;;;;;5111343;28;20282;-53
2022/01/08 07:30:20;;;;;;;12.43;10.00;;;2.70;99.90;;;;;;5112350;28;20297;-54
2022/01/08 07:32:50;;;;;;;14.37;10.30;;;2.70;99.90;;;;;;5126428;27;20198;-53
2022/01/08 07:35:22;;;;;;;16.20;11.27;;;2.70;99.90;;;;;;5106040;28;20193;-53
2022/01/08 07:37:52;;;;;;;20.07;12.33;;;2.70;99.90;;;;;;5103504;27;20228;-54
2022/01/08 07:40:21;;;;;;;38.23;20.67;;;2.70;99.90;;;;;;5092071;28;20234;-53
2022/01/08 07:42:50;;;;;;;42.23;15.63;;;2.80;99.90;;;;;;5109505;28;20252;-54
2022/01/08 07:45:19;;;;;;;41.47;16.00;;;2.80;99.90;;;;;;5111847;28;20278;-54
2022/01/08 07:47:48;;;;;;;90.90;19.03;;;2.90;99.90;;;;;;5111916;28;20268;-55
2022/01/08 07:50:17;;;;;;;28.57;14.07;;;2.90;99.90;;;;;;5122167;27;20209;-53
2022/01/08 07:52:46;;;;;;;34.73;14.17;;;2.80;99.90;;;;;;5130433;27;20662;-54
2022/01/08 07:55:14;;;;;;;78.47;15.70;;;2.90;99.90;;;;;;5129131;27;20615;-54
2022/01/08 07:57:42;;;;;;;58.17;15.60;;;2.90;99.90;;;;;;5122312;27;20721;-54
2022/01/08 08:00:12;;;;;;;32.13;13.73;;;2.90;99.90;;;;;;5111535;28;20617;-56
2022/01/08 08:02:40;;;;;;;28.13;13.03;;;2.90;99.90;;;;;;5111291;28;20932;-55
2022/01/08 08:05:09;;;;;;;20.43;12.27;;;2.80;99.90;;;;;;5111445;28;20310;-53
2022/01/08 08:07:40;;;;;;;15.70;11.50;;;2.80;99.90;;;;;;5111258;28;20224;-53
2022/01/08 08:10:13;;;;;;;14.87;11.33;;;2.80;99.90;;;;;;5111775;28;20579;-53
2022/01/08 08:12:42;;;;;;;16.20;11.03;;;2.80;99.90;;;;;;5111631;28;20232;-54
2022/01/08 08:15:13;;;;;;;17.47;11.50;;;2.70;99.90;;;;;;5118661;27;20625;-52
2022/01/08 08:17:41;;;;;;;14.43;10.97;;;2.70;99.90;;;;;;5120791;27;20779;-54
2022/01/08 08:20:10;;;;;;;14.30;10.97;;;2.70;99.90;;;;;;5117993;27;20640;-54
2022/01/08 08:22:38;;;;;;;15.17;11.20;;;2.70;99.90;;;;;;5111518;28;20248;-54
2022/01/08 08:25:08;;;;;;;15.73;11.47;;;2.60;99.90;;;;;;5129457;27;20226;-53
2022/01/08 08:27:39;;;;;;;16.70;10.63;;;2.60;99.90;;;;;;5123453;28;20229;-55
2022/01/08 08:30:09;;;;;;;16.37;10.80;;;2.60;99.90;;;;;;5117990;28;20240;-54
2022/01/08 08:32:37;;;;;;;14.03;10.47;;;2.60;99.90;;;;;;5125708;28;20203;-53
2022/01/08 08:35:06;;;;;;;14.67;9.80;;;2.40;99.90;;;;;;5122559;27;20282;-53
2022/01/08 08:37:35;;;;;;;14.17;10.23;;;2.40;99.90;;;;;;5113860;28;20239;-55
2022/01/08 08:40:11;;;;;;;14.70;10.40;;;2.40;99.90;;;;;;5111046;28;20699;-54
2022/01/08 08:42:41;;;;;;;14.73;10.60;;;2.40;99.90;;;;;;5106309;28;20261;-52
2022/01/08 08:45:10;;;;;;;14.23;9.47;;;2.40;99.90;;;;;;5112064;28;20254;-54
2022/01/08 08:47:39;;;;;;;13.93;9.53;;;2.30;99.90;;;;;;5123357;28;20228;-54
2022/01/08 08:50:10;;;;;;;13.07;9.43;;;2.30;99.90;;;;;;5126154;27;20207;-54
2022/01/08 08:52:38;;;;;;;17.27;10.00;;;2.30;99.90;;;;;;5126315;27;20568;-54
2022/01/08 08:55:07;;;;;;;12.87;8.93;;;2.40;99.90;;;;;;5126768;27;20679;-55
2022/01/08 08:57:36;;;;;;;14.00;10.07;;;2.40;99.90;;;;;;5124634;27;20710;-55
2022/01/08 09:00:07;;;;;;;16.73;10.67;;;2.50;99.90;;;;;;5121666;28;20280;-54
2022/01/08 09:02:35;;;;;;;18.37;11.03;;;2.50;99.90;;;;;;5124462;28;20187;-53
2022/01/08 09:05:04;;;;;;;12.80;9.53;;;2.60;99.90;;;;;;5111647;28;20218;-54
2022/01/08 09:07:33;;;;;;;15.03;10.23;;;2.50;99.90;;;;;;5086178;28;20262;-53
2022/01/08 09:10:01;;;;;;;17.63;11.00;;;2.50;99.90;;;;;;5109503;28;20220;-54
2022/01/08 09:12:30;;;;;;;14.47;10.27;;;2.50;99.90;;;;;;5106041;28;20253;-53
2022/01/08 09:14:58;;;;;;;15.37;10.13;;;2.50;99.90;;;;;;5104382;28;20265;-53
2022/01/08 09:17:28;;;;;;;12.90;9.47;;;2.60;99.90;;;;;;5111169;28;20225;-54
2022/01/08 09:19:56;;;;;;;12.67;9.53;;;2.70;99.90;;;;;;5099758;28;20335;-55
2022/01/08 09:22:30;;;;;;;14.67;9.20;;;2.90;99.90;;;;;;5092965;28;20261;-53
2022/01/08 09:24:59;;;;;;;15.53;9.40;;;3.00;99.90;;;;;;5098399;27;20725;-53
2022/01/08 09:27:27;;;;;;;13.83;8.43;;;3.10;99.90;;;;;;5092695;27;20236;-54
2022/01/08 09:29:55;;;;;;;15.50;9.00;;;3.10;99.90;;;;;;5092627;28;20632;-54
2022/01/08 09:32:25;;;;;;;21.83;9.30;;;3.20;99.90;;;;;;5115607;27;20249;-54
2022/01/08 09:34:55;;;;;;;13.83;8.70;;;3.10;99.90;;;;;;5117993;27;20204;-53
2022/01/08 09:37:23;;;;;;;16.37;8.87;;;3.10;99.90;;;;;;5100039;28;20224;-53
2022/01/08 09:39:52;;;;;;;20.30;10.13;;;3.20;99.90;;;;;;5092135;28;20584;-53
2022/01/08 09:42:20;;;;;;;16.80;9.90;;;3.20;99.90;;;;;;5092322;28;20208;-54
2022/01/08 09:44:48;;;;;;;19.63;8.90;;;3.10;99.90;;;;;;5108422;28;20256;-55
2022/01/08 09:47:16;;;;;;;20.37;8.37;;;3.20;99.90;;;;;;5116891;27;20224;-55
2022/01/08 09:49:44;;;;;;;17.00;7.90;;;3.20;99.90;;;;;;5112429;27;20261;-54
2022/01/08 09:52:14;;;;;;;16.37;9.13;;;3.20;99.90;;;;;;5094283;28;20235;-54
2022/01/08 09:54:42;;;;;;;15.37;9.30;;;3.10;99.90;;;;;;5109890;28;20203;-54
2022/01/08 09:57:11;;;;;;;27.17;10.73;;;3.10;99.90;;;;;;5107083;27;20356;-54
2022/01/08 09:59:39;;;;;;;15.07;9.13;;;3.10;99.90;;;;;;5104176;28;20231;-54
2022/01/08 10:02:07;;;;;;;23.40;10.17;;;3.10;99.90;;;;;;5115148;27;20201;-54
2022/01/08 10:04:38;;;;;;;19.27;9.73;;;3.10;99.90;;;;;;5100200;28;20204;-56
2022/01/08 10:07:20;;;;;;;15.80;9.17;;;3.20;99.90;;;;;;5099990;28;20269;-56
2022/01/08 10:10:04;;;;;;;18.00;9.20;;;3.20;99.90;;;;;;5096288;28;20210;-56
2022/01/08 10:12:37;;;;;;;15.30;9.90;;;3.30;99.90;;;;;;5093538;28;20205;-56
2022/01/08 10:17:48;;;;;;;17.43;10.50;;;3.40;99.90;;;;;;5078130;28;20278;-56
2022/01/08 10:20:28;;;;;;;17.77;11.40;;;3.40;99.90;;;;;;5099256;28;20282;-55
2022/01/08 10:23:28;;;;;;;17.67;10.77;;;3.50;99.90;;;;;;5105410;28;20214;-55
2022/01/08 10:26:00;;;;;;;15.03;10.17;;;3.50;99.90;;;;;;5026480;28;20686;-55
2022/01/08 10:28:34;;;;;;;16.70;10.43;;;3.40;99.90;;;;;;5099831;27;20248;-56
2022/01/08 10:31:11;;;;;;;19.83;11.93;;;3.40;99.90;;;;;;5113127;28;20206;-56
2022/01/08 10:33:40;;;;;;;17.93;11.30;;;3.30;99.90;;;;;;5111810;28;20187;-57
2022/01/08 10:36:08;;;;;;;26.60;12.30;;;3.30;99.90;;;;;;5115916;27;20197;-54
2022/01/08 10:38:37;;;;;;;17.53;11.50;;;3.40;99.90;;;;;;5114427;27;20323;-55
2022/01/08 10:41:13;;;;;;;17.23;10.73;;;3.40;99.90;;;;;;5113090;28;20212;-55
2022/01/08 10:43:42;;;;;;;15.33;10.30;;;3.50;99.90;;;;;;5112916;28;20252;-56
2022/01/08 10:46:13;;;;;;;22.20;12.03;;;3.60;99.90;;;;;;5112380;28;20223;-57
2022/01/08 10:48:45;;;;;;;26.87;12.17;;;3.60;99.90;;;;;;5109491;27;20254;-54
2022/01/08 10:51:18;;;;;;;25.60;13.10;;;3.70;99.90;;;;;;5095461;28;20223;-55
2022/01/08 10:54:00;;;;;;;21.63;12.20;;;3.70;99.90;;;;;;5102525;28;20200;-54
2022/01/08 10:56:30;;;;;;;20.33;11.13;;;3.70;99.90;;;;;;5098800;28;20208;-57
2022/01/08 10:59:01;;;;;;;26.87;12.87;;;3.70;99.90;;;;;;5106171;28;20596;-57
2022/01/08 11:01:58;;;;;;;22.10;13.40;;;3.70;99.90;;;;;;5110400;28;20276;-55
2022/01/08 11:04:39;;;;;;;28.60;13.40;;;3.60;99.90;;;;;;5110151;28;20204;-57
2022/01/08 11:07:10;;;;;;;29.40;14.43;;;3.50;99.90;;;;;;5111943;28;20738;-57
2022/01/08 11:09:41;;;;;;;25.57;14.47;;;3.60;99.90;;;;;;5112434;28;20203;-56
2022/01/08 11:12:13;;;;;;;23.00;14.63;;;3.60;99.90;;;;;;5112606;28;20214;-55
2022/01/08 11:15:01;;;;;;;23.73;15.23;;;3.60;99.90;;;;;;5112347;28;20227;-55
2022/01/08 11:17:32;;;;;;;26.07;15.13;;;3.60;99.90;;;;;;5112422;28;20269;-55
2022/01/08 11:20:04;;;;;;;22.43;14.97;;;3.60;99.90;;;;;;5120929;27;20203;-56
2022/01/08 11:22:34;;;;;;;21.93;15.17;;;3.70;99.90;;;;;;5131318;27;20206;-55
2022/01/08 11:25:07;;;;;;;23.33;15.13;;;3.70;99.90;;;;;;5114043;27;20207;-55
2022/01/08 11:27:44;;;;;;;20.93;14.43;;;3.70;99.90;;;;;;5114754;27;20223;-56
2022/01/08 11:30:16;;;;;;;26.03;16.43;;;3.70;99.90;;;;;;5123655;27;20202;-56
2022/01/08 11:32:46;;;;;;;26.20;17.33;;;3.70;99.90;;;;;;5130513;27;20247;-56
2022/01/08 11:35:35;;;;;;;27.83;18.13;;;3.70;99.90;;;;;;5106127;27;20208;-55
2022/01/08 11:38:06;;;;;;;27.47;17.37;;;3.60;99.90;;;;;;5111542;28;20220;-55
2022/01/08 11:40:38;;;;;;;27.03;17.13;;;3.60;99.90;;;;;;5116456;27;20625;-55
2022/01/08 11:43:08;;;;;;;28.67;17.03;;;3.50;99.90;;;;;;5132329;27;20203;-56
2022/01/08 11:45:38;;;;;;;27.57;16.53;;;3.50;99.90;;;;;;5132284;27;20217;-56
2022/01/08 11:48:11;;;;;;;23.27;15.67;;;3.50;99.90;;;;;;5128155;27;20228;-54
2022/01/08 11:50:40;;;;;;;22.23;16.10;;;3.50;99.90;;;;;;5103241;27;20202;-55
2022/01/08 11:53:19;;;;;;;23.97;16.13;;;3.40;99.90;;;;;;5107850;28;20208;-55
2022/01/08 11:55:50;;;;;;;20.10;15.17;;;3.50;99.90;;;;;;5111045;28;20626;-55
2022/01/08 11:58:25;;;;;;;23.43;15.03;;;3.50;99.90;;;;;;5101005;28;20747;-56
2022/01/08 12:00:59;;;;;;;22.90;14.57;;;3.50;99.90;;;;;;5101915;27;20227;-54
2022/01/08 12:03:33;;;;;;;26.57;16.10;;;3.40;99.90;;;;;;5100918;28;20253;-56
2022/01/08 12:06:32;;;;;;;24.90;17.90;;;3.40;99.90;;;;;;5102081;27;20203;-55
2022/01/08 12:09:17;;;;;;;33.33;19.83;;;3.40;99.90;;;;;;5094768;28;20251;-55
2022/01/08 12:12:07;;;;;;;28.47;19.03;;;3.30;99.90;;;;;;5097977;28;20279;-54
2022/01/08 12:14:47;;;;;;;33.60;20.60;;;3.20;99.90;;;;;;5093383;28;20203;-57
2022/01/08 12:17:17;;;;;;;33.70;19.97;;;3.20;99.90;;;;;;5093018;28;20222;-55
2022/01/08 12:19:47;;;;;;;26.40;19.27;;;3.20;99.90;;;;;;5100404;28;20196;-55
2022/01/08 12:22:32;;;;;;;31.90;20.33;;;3.20;99.90;;;;;;5093215;28;20807;-55
2022/01/08 12:25:03;;;;;;;36.37;19.87;;;3.20;99.90;;;;;;5099947;28;20210;-56
2022/01/08 12:27:43;;;;;;;30.17;18.70;;;3.10;99.90;;;;;;5095967;28;20262;-56
2022/01/08 12:30:35;;;;;;;35.50;17.27;;;3.10;99.90;;;;;;5094293;28;20192;-56
2022/01/08 12:33:19;;;;;;;31.40;17.60;;;3.00;99.90;;;;;;5095448;28;20251;-57
2022/01/08 12:35:50;;;;;;;29.37;16.07;;;3.10;99.90;;;;;;5094436;28;20197;-56
2022/01/08 12:38:29;;;;;;;24.60;16.03;;;3.10;99.90;;;;;;5096149;28;20221;-57
2022/01/08 12:40:58;;;;;;;25.65;15.52;;;3.10;99.90;;;;;;5097087;28;20822;-55
2022/01/08 12:43:33;;;;;;;20.10;13.57;;;3.30;99.90;;;;;;5098891;27;20211;-56
2022/01/08 12:46:19;;;;;;;20.70;13.20;;;3.20;99.90;;;;;;5100981;27;20213;-55
2022/01/08 12:49:18;;;;;;;20.70;12.73;;;3.20;99.90;;;;;;5097371;27;20225;-56
2022/01/08 12:52:08;;;;;;;18.33;12.17;;;3.30;99.90;;;;;;5014375;28;20378;-56
2022/01/08 12:54:37;;;;;;;22.87;11.67;;;3.30;99.90;;;;;;5096166;27;20215;-56
2022/01/08 12:57:06;;;;;;;17.53;10.77;;;3.30;99.90;;;;;;5100601;28;20196;-56
2022/01/08 12:59:38;;;;;;;19.53;10.40;;;3.40;99.90;;;;;;5100302;28;20207;-55
2022/01/08 13:02:08;;;;;;;15.10;8.97;;;3.40;99.90;;;;;;5100124;28;20207;-56
2022/01/08 13:04:39;;;;;;;13.03;8.57;;;3.40;99.90;;;;;;5097674;28;20313;-55
2022/01/08 13:07:08;;;;;;;14.73;8.80;;;3.60;99.90;;;;;;5100181;28;20284;-55
2022/01/08 13:09:36;;;;;;;14.60;8.00;;;3.70;99.90;;;;;;5098230;28;20208;-56
2022/01/08 13:12:05;;;;;;;11.63;7.07;;;3.70;99.90;;;;;;5102155;28;20635;-56